createdAt,value
2018-09-09T00:00:38.968Z,99.99
2018-09-09T00:01:39.384Z,99.99
2018-09-09T00:02:39.794Z,99.99
2018-09-09T00:03:40.041Z,99.99
2018-09-09T00:04:40.174Z,99.99
2018-09-09T00:05:40.586Z,99.99
2018-09-09T00:06:41.280Z,99.99
2018-09-09T00:07:41.410Z,99.99
2018-09-09T00:08:42.377Z,99.99
2018-09-09T00:09:42.206Z,99.99
2018-09-09T00:10:42.341Z,99.99
2018-09-09T00:11:42.799Z,99.99
2018-09-09T00:12:43.489Z,99.99
2018-09-09T00:13:44.178Z,99.99
2018-09-09T00:14:44.867Z,99.99
2018-09-09T00:15:45.278Z,99.99
2018-09-09T00:16:46.247Z,99.99
2018-09-09T00:17:46.936Z,99.99
2018-09-09T00:18:47.673Z,99.99
2018-09-09T00:19:48.608Z,99.99
2018-09-09T00:20:49.020Z,99.99
2018-09-09T00:21:49.709Z,99.99
2018-09-09T00:22:50.118Z,99.99
2018-09-09T00:23:50.527Z,99.99
2018-09-09T00:24:51.216Z,99.99
2018-09-09T00:25:51.915Z,99.99
2018-09-09T00:26:52.160Z,99.99
2018-09-09T00:27:52.570Z,99.99
2018-09-09T00:28:52.704Z,99.99
2018-09-09T00:29:53.959Z,99.99
2018-09-09T00:30:54.376Z,99.99
2018-09-09T00:31:55.349Z,99.99
2018-09-09T00:32:55.482Z,99.99
2018-09-09T00:33:55.892Z,99.99
2018-09-09T00:34:56.304Z,99.99
2018-09-09T00:35:56.440Z,99.99
2018-09-09T00:36:56.852Z,99.99
2018-09-09T00:37:56.988Z,99.99
2018-09-09T00:38:57.123Z,99.99
2018-09-09T00:39:57.833Z,99.99
2018-09-09T00:40:58.519Z,99.99
2018-09-09T00:41:58.933Z,99.99
2018-09-09T00:42:59.342Z,99.99
2018-09-09T00:44:00.309Z,99.99
2018-09-09T00:45:00.721Z,99.99
2018-09-09T00:46:00.856Z,99.99
2018-09-09T00:47:01.266Z,99.99
2018-09-09T00:48:01.678Z,99.99
2018-09-09T00:49:01.810Z,99.99
2018-09-09T00:50:02.068Z,99.99
2018-09-09T00:51:02.481Z,99.99
2018-09-09T00:52:03.450Z,99.99
2018-09-09T00:53:03.583Z,99.99
2018-09-09T00:54:03.721Z,99.99
2018-09-09T00:55:04.134Z,99.99
2018-09-09T00:56:04.271Z,99.99
2018-09-09T00:57:04.681Z,99.99
2018-09-09T00:58:04.815Z,99.99
2018-09-09T00:59:05.225Z,99.99
2018-09-09T01:00:06.482Z,99.99
2018-09-09T01:01:06.894Z,99.99
2018-09-09T01:02:07.308Z,99.99
2018-09-09T01:03:07.996Z,99.99
2018-09-09T01:04:08.409Z,99.99
2018-09-09T01:05:08.541Z,99.99
2018-09-09T01:06:09.512Z,99.99
2018-09-09T01:07:09.927Z,99.99
2018-09-09T01:08:10.613Z,99.99
2018-09-09T01:09:11.023Z,99.99
2018-09-09T01:10:11.561Z,99.99
2018-09-09T01:11:11.697Z,99.99
2018-09-09T01:12:12.110Z,99.99
2018-09-09T01:13:12.525Z,99.99
2018-09-09T01:14:13.213Z,99.99
2018-09-09T01:15:14.183Z,99.99
2018-09-09T01:16:14.317Z,99.99
2018-09-09T01:17:14.449Z,99.99
2018-09-09T01:18:14.582Z,99.99
2018-09-09T01:19:14.715Z,99.99
2018-09-09T01:20:15.420Z,99.99
2018-09-09T01:21:16.110Z,99.99
2018-09-09T01:22:16.519Z,99.99
2018-09-09T01:23:17.484Z,99.99
2018-09-09T01:24:18.176Z,99.99
2018-09-09T01:25:18.308Z,99.99
2018-09-09T01:26:18.718Z,99.99
2018-09-09T01:27:18.857Z,99.99
2018-09-09T01:28:19.549Z,99.99
2018-09-09T01:29:19.681Z,99.99
2018-09-09T01:30:20.394Z,99.99
2018-09-09T01:31:20.844Z,99.99
2018-09-09T01:32:20.978Z,99.99
2018-09-09T01:33:21.111Z,99.99
2018-09-09T01:34:21.801Z,99.99
2018-09-09T01:35:22.219Z,99.99
2018-09-09T01:36:22.629Z,99.99
2018-09-09T01:37:23.040Z,99.99
2018-09-09T01:38:23.451Z,99.99
2018-09-09T01:39:24.144Z,99.99
2018-09-09T01:40:24.682Z,99.99
2018-09-09T01:41:24.817Z,99.99
2018-09-09T01:42:25.571Z,99.99
2018-09-09T01:43:25.981Z,99.99
2018-09-09T01:44:26.113Z,99.99
2018-09-09T01:45:26.525Z,99.99
2018-09-09T01:46:27.212Z,99.99
2018-09-09T01:47:27.902Z,99.99
2018-09-09T01:48:28.594Z,99.99
2018-09-09T01:49:29.285Z,99.99
2018-09-09T01:50:29.545Z,99.99
2018-09-09T01:51:29.679Z,99.99
2018-09-09T01:52:30.376Z,99.99
2018-09-09T01:53:30.618Z,99.99
2018-09-09T01:54:31.030Z,99.99
2018-09-09T01:55:32.272Z,99.99
2018-09-09T01:56:32.406Z,99.99
2018-09-09T01:57:33.095Z,99.99
2018-09-09T01:58:33.224Z,99.99
2018-09-09T01:59:33.357Z,99.99
2018-09-09T02:00:34.062Z,99.99
2018-09-09T02:01:34.753Z,99.99
2018-09-09T02:02:35.439Z,99.99
2018-09-09T02:03:35.572Z,99.99
2018-09-09T02:04:35.980Z,99.99
2018-09-09T02:05:36.390Z,99.99
2018-09-09T02:06:36.805Z,99.99
2018-09-09T02:07:37.214Z,99.99
2018-09-09T02:08:37.460Z,99.99
2018-09-09T02:09:37.872Z,99.99
2018-09-09T02:10:38.578Z,99.99
2018-09-09T02:11:38.987Z,99.99
2018-09-09T02:12:39.674Z,99.99
2018-09-09T02:13:39.806Z,99.99
2018-09-09T02:14:40.217Z,99.99
2018-09-09T02:15:40.630Z,99.99
2018-09-09T02:16:41.040Z,99.99
2018-09-09T02:17:41.450Z,99.99
2018-09-09T02:18:42.415Z,99.99
2018-09-09T02:19:43.105Z,99.99
2018-09-09T02:20:43.364Z,99.99
2018-09-09T02:21:44.049Z,99.99
2018-09-09T02:22:44.736Z,99.99
2018-09-09T02:23:45.427Z,99.99
2018-09-09T02:24:45.839Z,99.99
2018-09-09T02:25:46.586Z,99.99
2018-09-09T02:26:46.996Z,99.99
2018-09-09T02:27:47.685Z,99.99
2018-09-09T02:28:48.100Z,99.99
2018-09-09T02:29:48.783Z,99.99
2018-09-09T02:30:49.486Z,99.99
2018-09-09T02:31:49.899Z,99.99
2018-09-09T02:32:50.588Z,99.99
2018-09-09T02:33:51.001Z,99.99
2018-09-09T02:34:51.964Z,99.99
2018-09-09T02:35:52.653Z,99.99
2018-09-09T02:36:53.347Z,99.99
2018-09-09T02:37:54.035Z,99.99
2018-09-09T02:38:54.454Z,99.99
2018-09-09T02:39:54.868Z,99.99
2018-09-09T02:40:55.132Z,99.99
2018-09-09T02:41:55.264Z,99.99
2018-09-09T02:42:55.955Z,99.99
2018-09-09T02:43:56.090Z,99.99
2018-09-09T02:44:56.502Z,99.99
2018-09-09T02:45:56.637Z,99.99
2018-09-09T02:46:57.326Z,99.99
2018-09-09T02:47:57.737Z,99.99
2018-09-09T02:48:58.433Z,99.99
2018-09-09T02:49:59.400Z,99.99
2018-09-09T02:50:59.660Z,99.99
2018-09-09T02:52:00.351Z,99.99
2018-09-09T02:53:01.037Z,99.99
2018-09-09T02:54:01.447Z,99.99
2018-09-09T02:55:02.135Z,99.99
2018-09-09T02:56:02.268Z,99.99
2018-09-09T02:57:02.677Z,99.99
2018-09-09T02:58:03.089Z,99.99
2018-09-09T02:59:03.776Z,99.99
2018-09-09T03:00:04.188Z,99.99
2018-09-09T03:01:04.446Z,99.99
2018-09-09T03:02:04.864Z,99.99
2018-09-09T03:03:04.994Z,99.99
2018-09-09T03:04:05.681Z,99.99
2018-09-09T03:05:06.371Z,99.99
2018-09-09T03:06:06.895Z,99.99
2018-09-09T03:07:07.595Z,99.99
2018-09-09T03:08:08.285Z,99.99
2018-09-09T03:09:08.702Z,99.99
2018-09-09T03:10:09.392Z,99.99
2018-09-09T03:11:09.761Z,99.99
2018-09-09T03:12:10.448Z,99.99
2018-09-09T03:13:10.582Z,99.99
2018-09-09T03:14:10.997Z,99.99
2018-09-09T03:15:11.686Z,99.99
2018-09-09T03:16:11.816Z,99.99
2018-09-09T03:17:12.503Z,99.99
2018-09-09T03:18:13.194Z,99.99
2018-09-09T03:19:13.609Z,99.99
2018-09-09T03:20:14.298Z,99.99
2018-09-09T03:21:14.833Z,99.99
2018-09-09T03:22:15.246Z,99.99
2018-09-09T03:23:16.213Z,99.99
2018-09-09T03:24:16.624Z,99.99
2018-09-09T03:25:16.761Z,99.99
2018-09-09T03:26:17.172Z,99.99
2018-09-09T03:27:17.582Z,99.99
2018-09-09T03:28:18.270Z,99.99
2018-09-09T03:29:18.706Z,99.99
2018-09-09T03:30:19.951Z,99.99
2018-09-09T03:31:20.489Z,99.99
2018-09-09T03:32:21.457Z,99.99
2018-09-09T03:33:21.723Z,99.99
2018-09-09T03:34:21.856Z,99.99
2018-09-09T03:35:22.848Z,99.99
2018-09-09T03:36:23.258Z,99.99
2018-09-09T03:37:23.391Z,99.99
2018-09-09T03:38:23.522Z,99.99
2018-09-09T03:39:23.930Z,99.99
2018-09-09T03:40:24.627Z,99.99
2018-09-09T03:41:25.178Z,99.99
2018-09-09T03:42:25.872Z,99.99
2018-09-09T03:43:26.578Z,99.99
2018-09-09T03:44:27.549Z,99.99
2018-09-09T03:45:28.238Z,99.99
2018-09-09T03:46:28.650Z,99.99
2018-09-09T03:47:29.337Z,99.99
2018-09-09T03:48:29.471Z,99.99
2018-09-09T03:49:29.882Z,99.99
2018-09-09T03:50:30.572Z,99.99
2018-09-09T03:51:30.945Z,99.99
2018-09-09T03:52:31.360Z,99.99
2018-09-09T03:53:31.769Z,99.99
2018-09-09T03:54:32.179Z,99.99
2018-09-09T03:55:32.870Z,99.99
2018-09-09T03:56:33.559Z,99.99
2018-09-09T03:57:34.529Z,99.99
2018-09-09T03:58:35.219Z,99.99
2018-09-09T03:59:35.920Z,99.99
2018-09-09T04:00:37.164Z,99.99
2018-09-09T04:01:37.154Z,99.99
2018-09-09T04:02:38.124Z,99.99
2018-09-09T04:03:38.534Z,99.99
2018-09-09T04:04:39.222Z,99.99
2018-09-09T04:05:39.186Z,99.99
2018-09-09T04:06:40.431Z,99.99
2018-09-09T04:07:41.398Z,99.99
2018-09-09T04:08:41.533Z,99.99
2018-09-09T04:09:42.220Z,99.99
2018-09-09T04:10:42.633Z,99.99
2018-09-09T04:11:43.618Z,99.99
2018-09-09T04:12:43.748Z,99.99
2018-09-09T04:13:44.438Z,99.99
2018-09-09T04:14:44.572Z,99.99
2018-09-09T04:15:44.707Z,99.99
2018-09-09T04:16:45.672Z,99.99
2018-09-09T04:17:46.637Z,99.99
2018-09-09T04:18:47.049Z,99.99
2018-09-09T04:19:47.185Z,99.99
2018-09-09T04:20:48.430Z,99.99
2018-09-09T04:21:48.964Z,99.99
2018-09-09T04:22:50.213Z,99.99
2018-09-09T04:23:50.624Z,99.99
2018-09-09T04:24:51.312Z,99.99
2018-09-09T04:25:51.723Z,99.99
2018-09-09T04:26:52.140Z,99.99
2018-09-09T04:27:52.827Z,99.99
2018-09-09T04:28:52.795Z,99.99
2018-09-09T04:29:54.038Z,99.99
2018-09-09T04:30:55.105Z,99.99
2018-09-09T04:31:55.498Z,99.99
2018-09-09T04:32:56.742Z,99.99
2018-09-09T04:33:57.154Z,99.99
2018-09-09T04:34:57.844Z,99.99
2018-09-09T04:35:57.978Z,99.99
2018-09-09T04:36:58.409Z,99.99
2018-09-09T04:37:59.099Z,99.99
2018-09-09T04:38:59.809Z,99.99
2018-09-09T04:40:00.224Z,99.99
2018-09-09T04:41:00.639Z,99.99
2018-09-09T04:42:01.185Z,99.99
2018-09-09T04:43:01.605Z,99.99
2018-09-09T04:44:02.013Z,99.99
2018-09-09T04:45:02.149Z,99.99
2018-09-09T04:46:02.282Z,99.99
2018-09-09T04:47:02.697Z,99.99
2018-09-09T04:48:03.384Z,99.99
2018-09-09T04:49:03.837Z,99.99
2018-09-09T04:49:17.124Z,99.99
2018-09-09T04:50:17.667Z,99.99
2018-09-09T04:51:18.355Z,99.99
2018-09-09T04:52:19.363Z,99.99
2018-09-09T04:53:19.381Z,99.99
2018-09-09T04:54:20.070Z,99.99
2018-09-09T04:55:20.761Z,99.99
2018-09-09T04:56:21.181Z,99.99
2018-09-09T04:57:21.598Z,99.99
2018-09-09T04:58:22.285Z,99.99
2018-09-09T04:59:22.422Z,99.99
2018-09-09T05:00:23.418Z,99.99
2018-09-09T05:01:24.893Z,99.99
2018-09-09T05:02:25.198Z,99.99
2018-09-09T05:03:25.614Z,99.99
2018-09-09T05:04:26.032Z,99.99
2018-09-09T05:05:26.724Z,99.99
2018-09-09T05:06:26.859Z,99.99
2018-09-09T05:07:27.550Z,99.99
2018-09-09T05:08:28.521Z,99.99
2018-09-09T05:09:28.774Z,99.99
2018-09-09T05:10:28.759Z,99.99
2018-09-09T05:11:29.729Z,99.99
2018-09-09T05:12:29.863Z,99.99
2018-09-09T05:13:30.554Z,99.99
2018-09-09T05:14:31.247Z,99.99
2018-09-09T05:15:32.219Z,99.99
2018-09-09T05:16:32.634Z,99.99
2018-09-09T05:17:33.329Z,99.99
2018-09-09T05:18:34.599Z,99.99
2018-09-09T05:19:34.735Z,99.99
2018-09-09T05:20:35.000Z,99.99
2018-09-09T05:21:35.413Z,99.99
2018-09-09T05:22:36.384Z,99.99
2018-09-09T05:23:36.523Z,99.99
2018-09-09T05:24:36.939Z,99.99
2018-09-09T05:25:37.077Z,99.99
2018-09-09T05:26:37.772Z,99.99
2018-09-09T05:27:37.907Z,99.99
2018-09-09T05:28:38.330Z,99.99
2018-09-09T05:29:38.750Z,99.99
2018-09-09T05:30:39.294Z,99.99
2018-09-09T05:31:39.983Z,99.99
2018-09-09T05:32:40.421Z,99.99
2018-09-09T05:33:41.112Z,99.99
2018-09-09T05:34:41.527Z,99.99
2018-09-09T05:35:42.222Z,99.99
2018-09-09T05:36:42.360Z,99.99
2018-09-09T05:37:42.495Z,99.99
2018-09-09T05:38:42.958Z,99.99
2018-09-09T05:39:43.928Z,99.99
2018-09-09T05:40:44.914Z,99.99
2018-09-09T05:41:45.605Z,99.99
2018-09-09T05:42:45.573Z,99.99
2018-09-09T05:43:45.989Z,99.99
2018-09-09T05:44:46.207Z,99.99
2018-09-09T05:45:46.263Z,99.99
2018-09-09T05:46:46.959Z,99.99
2018-09-09T05:47:47.094Z,99.99
2018-09-09T05:48:47.232Z,99.99
2018-09-09T05:49:47.929Z,99.99
2018-09-09T05:50:48.479Z,99.99
2018-09-09T05:51:48.608Z,99.99
2018-09-09T05:52:49.306Z,99.99
2018-09-09T05:53:49.801Z,99.99
2018-09-09T05:54:49.642Z,99.99
2018-09-09T05:55:49.893Z,99.99
2018-09-09T05:56:50.583Z,99.99
2018-09-09T05:57:51.075Z,99.99
2018-09-09T05:58:51.351Z,99.99
2018-09-09T05:59:51.490Z,99.99
2018-09-09T06:00:52.474Z,99.99
2018-09-09T06:01:53.453Z,99.99
2018-09-09T06:02:53.870Z,99.99
2018-09-09T06:03:54.295Z,99.99
2018-09-09T06:04:54.440Z,99.99
2018-09-09T06:05:55.129Z,99.99
2018-09-09T06:06:55.825Z,99.99
2018-09-09T06:07:56.074Z,99.99
2018-09-09T06:08:56.212Z,99.99
2018-09-09T06:09:56.904Z,99.99
2018-09-09T06:10:57.609Z,99.99
2018-09-09T06:11:58.306Z,99.99
2018-09-09T06:12:58.444Z,99.99
2018-09-09T06:13:59.144Z,99.99
2018-09-09T06:14:59.853Z,99.99
2018-09-09T06:16:00.267Z,99.99
2018-09-09T06:17:01.244Z,99.99
2018-09-09T06:18:01.387Z,99.99
2018-09-09T06:19:01.848Z,99.99
2018-09-09T06:20:02.229Z,99.99
2018-09-09T06:21:02.943Z,99.99
2018-09-09T06:22:03.638Z,99.99
2018-09-09T06:23:04.336Z,99.99
2018-09-09T06:24:05.033Z,98.14
2018-09-09T06:25:05.181Z,96.7
2018-09-09T06:26:05.880Z,91.95
2018-09-09T06:27:06.025Z,89.4
2018-09-09T06:28:06.447Z,87.62
2018-09-09T06:29:07.181Z,86.31
2018-09-09T06:30:07.325Z,85.58
2018-09-09T06:31:07.594Z,85.78
2018-09-09T06:32:07.739Z,84.39
2018-09-09T06:33:08.715Z,84.53
2018-09-09T06:34:09.138Z,83.85
2018-09-09T06:35:09.559Z,80.96
2018-09-09T06:36:09.699Z,81.68
2018-09-09T06:37:10.121Z,81.2
2018-09-09T06:38:10.264Z,82.21
2018-09-09T06:39:11.130Z,80.96
2018-09-09T06:40:11.212Z,81.16
2018-09-09T06:41:12.209Z,80.87
2018-09-09T06:42:12.351Z,80.52
2018-09-09T06:43:13.049Z,80.52
2018-09-09T06:44:13.195Z,80.52
2018-09-09T06:45:13.617Z,79.81
2018-09-09T06:46:13.759Z,80.91
2018-09-09T06:47:13.901Z,82.12
2018-09-09T06:48:14.601Z,80.96
2018-09-09T06:49:15.025Z,81.54
2018-09-09T06:50:15.446Z,82.79
2018-09-09T06:51:15.725Z,81.93
2018-09-09T06:52:15.857Z,83.18
2018-09-09T06:53:16.279Z,82.89
2018-09-09T06:54:16.978Z,83.37
2018-09-09T06:55:17.318Z,84.77
2018-09-09T06:56:17.741Z,85.74
2018-09-09T06:57:18.162Z,84.58
2018-09-09T06:58:18.304Z,84.48
2018-09-09T06:59:18.723Z,85.16
2018-09-09T07:00:19.421Z,84.67
2018-09-09T07:01:19.694Z,84.29
2018-09-09T07:02:20.155Z,84.48
2018-09-09T07:03:20.605Z,84.29
2018-09-09T07:04:21.024Z,84.19
2018-09-09T07:05:21.288Z,84.67
2018-09-09T07:06:21.264Z,84.87
2018-09-09T07:07:21.686Z,84.87
2018-09-09T07:08:22.107Z,84.67
2018-09-09T07:09:22.249Z,84.77
2018-09-09T07:10:22.392Z,84.53
2018-09-09T07:11:23.631Z,84.23
2018-09-09T07:12:24.098Z,83.37
2018-09-09T07:13:24.804Z,84.43
2018-09-09T07:14:24.990Z,84.33
2018-09-09T07:15:25.688Z,83.66
2018-09-09T07:16:26.388Z,83.7
2018-09-09T07:17:26.809Z,83.8
2018-09-09T07:18:27.232Z,84.33
2018-09-09T07:19:27.373Z,84.33
2018-09-09T07:20:27.515Z,84.58
2018-09-09T07:21:27.785Z,84.72
2018-09-09T07:22:28.497Z,86.74
2018-09-09T07:23:29.190Z,85.87
2018-09-09T07:24:29.611Z,85.64
2018-09-09T07:25:30.031Z,84.62
2018-09-09T07:26:30.174Z,85.58
2018-09-09T07:27:30.881Z,84.91
2018-09-09T07:28:31.461Z,84.67
2018-09-09T07:29:31.944Z,84.97
2018-09-09T07:30:32.365Z,84.43
2018-09-09T07:31:32.663Z,83.91
2018-09-09T07:32:32.807Z,84
2018-09-09T07:33:33.510Z,83.91
2018-09-09T07:34:34.206Z,83.75
2018-09-09T07:35:34.904Z,83.47
2018-09-09T07:36:35.600Z,84.14
2018-09-09T07:37:36.063Z,84.05
2018-09-09T07:38:36.020Z,83.75
2018-09-09T07:39:36.719Z,83.85
2018-09-09T07:40:37.419Z,83.95
2018-09-09T07:41:38.411Z,82.89
2018-09-09T07:42:39.116Z,83.56
2018-09-09T07:43:39.534Z,83.75
2018-09-09T07:44:40.231Z,83.37
2018-09-09T07:45:40.371Z,83.8
2018-09-09T07:46:40.514Z,82.83
2018-09-09T07:47:41.212Z,82.16
2018-09-09T07:48:42.189Z,82.83
2018-09-09T07:49:42.335Z,83.61
2018-09-09T07:50:42.949Z,83.12
2018-09-09T07:51:42.946Z,82.74
2018-09-09T07:52:43.364Z,81.2
2018-09-09T07:53:44.062Z,81.2
2018-09-09T07:54:44.763Z,81.01
2018-09-09T07:55:45.183Z,81.2
2018-09-09T07:56:45.602Z,82.35
2018-09-09T07:57:46.300Z,84.33
2018-09-09T07:58:46.442Z,84.62
2018-09-09T07:59:47.141Z,84.53
2018-09-09T08:00:47.283Z,84.53
2018-09-09T08:01:48.318Z,85.68
2018-09-09T08:02:49.018Z,84.43
2018-09-09T08:03:49.718Z,84.53
2018-09-09T08:04:50.415Z,84.05
2018-09-09T08:05:50.838Z,83.18
2018-09-09T08:06:51.257Z,83.95
2018-09-09T08:07:51.403Z,85.78
2018-09-09T08:08:51.826Z,84.33
2018-09-09T08:09:51.968Z,84.43
2018-09-09T08:10:52.945Z,84.23
2018-09-09T08:11:53.487Z,83.66
2018-09-09T08:12:53.908Z,84.14
2018-09-09T08:13:54.048Z,85.58
2018-09-09T08:14:54.192Z,87.8
2018-09-09T08:15:54.615Z,87.03
2018-09-09T08:16:54.757Z,88.04
2018-09-09T08:17:55.458Z,88.71
2018-09-09T08:18:56.158Z,89.43
2018-09-09T08:19:56.575Z,91.31
2018-09-09T08:20:57.287Z,90.35
2018-09-09T08:21:58.003Z,89.2
2018-09-09T08:22:58.147Z,90.26
2018-09-09T08:23:58.566Z,91.13
2018-09-09T08:24:58.711Z,90.64
2018-09-09T08:25:59.131Z,89.58
2018-09-09T08:26:59.555Z,91.51
2018-09-09T08:27:59.969Z,91.13
2018-09-09T08:29:00.665Z,89.68
2018-09-09T08:30:01.086Z,86.99
2018-09-09T08:31:01.920Z,86.26
2018-09-09T08:32:02.476Z,86.83
2018-09-09T08:33:02.615Z,87.9
2018-09-09T08:34:03.317Z,87.41
2018-09-09T08:35:04.292Z,86.26
2018-09-09T08:36:05.269Z,86.49
2018-09-09T08:37:05.714Z,88.51
2018-09-09T08:38:06.135Z,89.48
2018-09-09T08:39:06.276Z,90.54
2018-09-09T08:40:06.418Z,90.4
2018-09-09T08:41:06.836Z,90.5
2018-09-09T08:42:08.106Z,90.3
2018-09-09T08:43:08.255Z,89
2018-09-09T08:44:08.675Z,87.07
2018-09-09T08:45:08.819Z,86.3
2018-09-09T08:46:09.242Z,85.34
2018-09-09T08:47:09.949Z,83.51
2018-09-09T08:48:10.644Z,83.8
2018-09-09T08:49:10.789Z,85.53
2018-09-09T08:50:11.488Z,86.88
2018-09-09T08:51:12.464Z,84.99
2018-09-09T08:52:13.825Z,81.04
2018-09-09T08:53:14.071Z,81.24
2018-09-09T08:54:14.612Z,81.52
2018-09-09T08:55:15.158Z,81.72
2018-09-09T08:56:15.302Z,80.37
2018-09-09T08:57:16.000Z,79.41
2018-09-09T08:58:16.143Z,76.13
2018-09-09T08:59:17.120Z,75.65
2018-09-09T09:00:17.820Z,75.45
2018-09-09T09:01:18.240Z,75.26
2018-09-09T09:02:18.512Z,75.84
2018-09-09T09:03:18.931Z,75.26
2018-09-09T09:04:19.353Z,72.41
2018-09-09T09:05:19.774Z,71.54
2018-09-09T09:06:20.196Z,72.02
2018-09-09T09:07:20.688Z,71.54
2018-09-09T09:08:21.095Z,70.38
2018-09-09T09:09:21.796Z,72.89
2018-09-09T09:10:22.774Z,72.41
2018-09-09T09:11:23.192Z,63.44
2018-09-09T09:12:24.256Z,61.9
2018-09-09T09:13:25.492Z,58.69
2018-09-09T09:14:25.057Z,55.34
2018-09-09T09:15:25.482Z,54.28
2018-09-09T09:16:26.185Z,56.49
2018-09-09T09:17:26.606Z,55.4
2018-09-09T09:18:26.801Z,55.49
2018-09-09T09:19:27.529Z,55.9
2018-09-09T09:20:28.589Z,55.65
2018-09-09T09:21:28.616Z,55.63
2018-09-09T09:22:29.614Z,53.63
2018-09-09T09:23:30.362Z,53.36
2018-09-09T09:24:31.419Z,52.32
2018-09-09T09:25:31.845Z,53.22
2018-09-09T09:26:32.824Z,54.38
2018-09-09T09:27:33.528Z,55.26
2018-09-09T09:28:33.953Z,54.58
2018-09-09T09:29:34.656Z,53.22
2018-09-09T09:30:35.132Z,53.09
2018-09-09T09:31:35.034Z,51.54
2018-09-09T09:32:35.013Z,51.42
2018-09-09T09:33:35.437Z,50.52
2018-09-09T09:34:36.141Z,54.95
2018-09-09T09:35:36.288Z,53.5
2018-09-09T09:36:36.713Z,53.5
2018-09-09T09:37:37.136Z,54.08
2018-09-09T09:38:37.114Z,52.92
2018-09-09T09:39:37.537Z,53.28
2018-09-09T09:40:37.962Z,54.51
2018-09-09T09:41:38.389Z,56.54
2018-09-09T09:42:38.935Z,52.48
2018-09-09T09:43:39.699Z,51.13
2018-09-09T09:44:39.985Z,52.55
2018-09-09T09:45:40.058Z,51.51
2018-09-09T09:46:40.483Z,53.5
2018-09-09T09:47:40.630Z,52.17
2018-09-09T09:48:41.348Z,51.84
2018-09-09T09:49:41.491Z,51.93
2018-09-09T09:50:42.194Z,49.32
2018-09-09T09:51:42.897Z,49.65
2018-09-09T09:52:43.616Z,51.1
2018-09-09T09:53:43.762Z,52.63
2018-09-09T09:54:44.466Z,52.51
2018-09-09T09:55:44.893Z,54.35
2018-09-09T09:56:45.037Z,54.15
2018-09-09T09:57:45.741Z,54.51
2018-09-09T09:58:46.164Z,54.41
2018-09-09T09:59:46.310Z,54.22
2018-09-09T10:00:47.013Z,54.87
2018-09-09T10:01:47.434Z,54.97
2018-09-09T10:02:48.260Z,55.07
2018-09-09T10:03:48.409Z,56.15
2018-09-09T10:04:49.113Z,56.35
2018-09-09T10:05:48.865Z,54.93
2018-09-09T10:06:49.010Z,52.24
2018-09-09T10:07:49.437Z,51.68
2018-09-09T10:08:49.585Z,52.1
2018-09-09T10:09:50.013Z,52.42
2018-09-09T10:10:50.441Z,53.61
2018-09-09T10:11:50.592Z,52.34
2018-09-09T10:12:51.141Z,51.67
2018-09-09T10:13:51.568Z,50.5
2018-09-09T10:14:52.272Z,49.46
2018-09-09T10:15:52.699Z,49.82
2018-09-09T10:16:52.851Z,50.21
2018-09-09T10:17:53.559Z,48.76
2018-09-09T10:18:54.257Z,48.85
2018-09-09T10:19:54.969Z,48.69
2018-09-09T10:20:55.987Z,50.56
2018-09-09T10:21:56.376Z,49.22
2018-09-09T10:22:57.096Z,47.01
2018-09-09T10:23:57.523Z,44.89
2018-09-09T10:24:58.504Z,45.67
2018-09-09T10:25:58.655Z,47.13
2018-09-09T10:26:58.808Z,46.77
2018-09-09T10:27:59.237Z,48.25
2018-09-09T10:28:59.667Z,46.78
2018-09-09T10:30:00.124Z,44.06
2018-09-09T10:31:00.247Z,44.92
2018-09-09T10:32:00.678Z,46.84
2018-09-09T10:33:01.236Z,45.48
2018-09-09T10:34:02.223Z,47.91
2018-09-09T10:35:02.661Z,46.74
2018-09-09T10:36:03.091Z,47.61
2018-09-09T10:37:03.806Z,46.45
2018-09-09T10:38:04.510Z,44.6
2018-09-09T10:39:06.043Z,44.99
2018-09-09T10:40:06.194Z,46.35
2018-09-09T10:41:06.903Z,45.28
2018-09-09T10:42:07.057Z,46.15
2018-09-09T10:43:08.335Z,45.94
2018-09-09T10:44:08.766Z,45.17
2018-09-09T10:45:09.895Z,45.65
2018-09-09T10:46:09.596Z,50.12
2018-09-09T10:47:10.916Z,51.11
2018-09-09T10:48:11.695Z,50.36
2018-09-09T10:49:12.405Z,46.78
2018-09-09T10:50:12.561Z,48.95
2018-09-09T10:51:12.991Z,46.32
2018-09-09T10:52:12.790Z,42.82
2018-09-09T10:53:13.165Z,44.28
2018-09-09T10:54:13.372Z,44.65
2018-09-09T10:55:13.801Z,45.5
2018-09-09T10:56:14.232Z,45.6
2018-09-09T10:57:14.660Z,44.68
2018-09-09T10:58:15.093Z,44.97
2018-09-09T10:59:15.801Z,45.75
2018-09-09T11:00:16.512Z,47.2
2018-09-09T11:01:16.950Z,48.3
2018-09-09T11:02:17.927Z,47.61
2018-09-09T11:03:18.483Z,47.34
2018-09-09T11:04:18.915Z,45.91
2018-09-09T11:05:19.069Z,45.01
2018-09-09T11:06:19.220Z,44.62
2018-09-09T11:07:19.931Z,45.31
2018-09-09T11:08:20.086Z,48.73
2018-09-09T11:09:20.794Z,45.14
2018-09-09T11:10:20.952Z,44.24
2018-09-09T11:11:21.377Z,43.36
2018-09-09T11:12:21.808Z,44.14
2018-09-09T11:13:22.104Z,46.77
2018-09-09T11:14:22.535Z,45.67
2018-09-09T11:15:22.963Z,46.14
2018-09-09T11:16:23.394Z,46.91
2018-09-09T11:17:23.546Z,47.57
2018-09-09T11:18:23.714Z,47.55
2018-09-09T11:19:24.597Z,49.22
2018-09-09T11:20:24.721Z,48.18
2018-09-09T11:21:25.432Z,46.74
2018-09-09T11:22:26.136Z,46.86
2018-09-09T11:23:26.422Z,48.13
2018-09-09T11:24:26.971Z,49.8
2018-09-09T11:25:26.958Z,46.11
2018-09-09T11:26:27.386Z,46.77
2018-09-09T11:27:28.094Z,48.05
2018-09-09T11:28:28.806Z,49.41
2018-09-09T11:29:29.521Z,47.49
2018-09-09T11:30:30.509Z,46.91
2018-09-09T11:31:30.941Z,47.88
2018-09-09T11:32:31.653Z,48.95
2018-09-09T11:33:31.934Z,50.12
2018-09-09T11:34:32.363Z,45.94
2018-09-09T11:35:32.794Z,47.34
2018-09-09T11:36:32.948Z,48.39
2018-09-09T11:37:33.105Z,47.69
2018-09-09T11:38:33.532Z,47.66
2018-09-09T11:39:34.519Z,49
2018-09-09T11:40:35.001Z,49.29
2018-09-09T11:41:35.038Z,49.68
2018-09-09T11:42:35.741Z,49.77
2018-09-09T11:43:36.464Z,49.61
2018-09-09T11:44:37.177Z,48.9
2018-09-09T11:45:37.329Z,49.19
2018-09-09T11:46:38.317Z,49.07
2018-09-09T11:47:39.025Z,49.46
2018-09-09T11:48:39.461Z,48.88
2018-09-09T11:49:39.611Z,49.66
2018-09-09T11:50:40.046Z,52.5
2018-09-09T11:51:40.764Z,51.62
2018-09-09T11:52:41.194Z,49.29
2018-09-09T11:53:41.608Z,49.97
2018-09-09T11:54:42.592Z,50.94
2018-09-09T11:55:43.025Z,47.83
2018-09-09T11:56:43.454Z,48.71
2018-09-09T11:57:43.884Z,49.97
2018-09-09T11:58:44.312Z,48.71
2018-09-09T11:59:44.744Z,48.88
2018-09-09T12:00:45.175Z,51.01
2018-09-09T12:01:45.604Z,52.88
2018-09-09T12:02:46.033Z,50.26
2018-09-09T12:03:46.753Z,49.8
2018-09-09T12:04:46.905Z,49
2018-09-09T12:05:47.363Z,49.49
2018-09-09T12:06:48.073Z,49
2018-09-09T12:07:48.502Z,48.9
2018-09-09T12:08:48.931Z,49.19
2018-09-09T12:09:49.917Z,53.95
2018-09-09T12:10:50.345Z,54.92
2018-09-09T12:11:50.773Z,51.93
2018-09-09T12:12:51.763Z,54.49
2018-09-09T12:13:52.483Z,52.64
2018-09-09T12:14:52.915Z,51.38
2018-09-09T12:15:53.340Z,48.97
2018-09-09T12:16:53.775Z,48.27
2018-09-09T12:17:54.201Z,48.47
2018-09-09T12:18:54.633Z,49.05
2018-09-09T12:19:55.063Z,48.95
2018-09-09T12:20:55.214Z,48.75
2018-09-09T12:21:55.650Z,53.91
2018-09-09T12:22:56.075Z,50.43
2018-09-09T12:23:56.944Z,51.21
2018-09-09T12:24:57.371Z,47.71
2018-09-09T12:25:57.803Z,52.4
2018-09-09T12:26:58.232Z,50.07
2018-09-09T12:27:58.938Z,47.25
2018-09-09T12:28:59.092Z,46.4
2018-09-09T12:29:59.520Z,47.23
2018-09-09T12:30:59.948Z,48.2
2018-09-09T12:32:00.099Z,48.27
2018-09-09T12:33:00.833Z,49.32
2018-09-09T12:34:01.123Z,49.12
2018-09-09T12:35:01.824Z,52.72
2018-09-09T12:36:02.257Z,49.82
2018-09-09T12:37:02.685Z,49.71
2018-09-09T12:38:03.415Z,49.41
2018-09-09T12:39:03.844Z,50.19
2018-09-09T12:40:04.275Z,51.35
2018-09-09T12:41:04.704Z,50.38
2018-09-09T12:42:05.414Z,50.46
2018-09-09T12:43:06.121Z,50.56
2018-09-09T12:44:06.399Z,50.46
2018-09-09T12:45:07.110Z,50.46
2018-09-09T12:46:07.369Z,50.94
2018-09-09T12:47:08.146Z,51.62
2018-09-09T12:48:08.648Z,50.82
2018-09-09T12:49:09.632Z,51.79
2018-09-09T12:50:10.069Z,52.56
2018-09-09T12:51:10.774Z,53.34
2018-09-09T12:52:11.478Z,55.69
2018-09-09T12:53:12.187Z,58.51
2018-09-09T12:54:13.461Z,51.65
2018-09-09T12:55:13.891Z,50.68
2018-09-09T12:56:14.878Z,50.7
2018-09-09T12:57:15.310Z,54.29
2018-09-09T12:58:15.735Z,52.28
2018-09-09T12:59:16.164Z,52.96
2018-09-09T13:00:16.916Z,53.35